Time;durP1;ratioP1;P1;durP2;ratioP2;P2;SDS_P1;SDS_P2;PMS_P1;PMS_P2;Temp;Humidity;BMP_temperature;BMP_pressure;BME280_temperature;BME280_humidity;BME280_pressure;Samples;Min_cycle;Max_cycle;Signal;HPM_P1;HPM_P2
2023/06/29 00:01:25;;;;;;;2.78;1.50;;;21.70;99.90;;;;;;7392444;19;20141;-73
2023/06/29 00:03:52;;;;;;;2.10;1.60;;;21.80;99.90;;;;;;7392129;19;20488;-71
2023/06/29 00:06:18;;;;;;;3.00;1.67;;;21.90;99.90;;;;;;7392866;19;20135;-72
2023/06/29 00:08:43;;;;;;;2.88;1.85;;;21.80;99.90;;;;;;7390717;19;20486;-73
2023/06/29 00:11:09;;;;;;;2.50;1.70;;;21.80;99.90;;;;;;7391605;19;20583;-73
2023/06/29 00:13:35;;;;;;;2.53;1.90;;;21.70;99.90;;;;;;7393200;19;20142;-73
2023/06/29 00:16:01;;;;;;;3.55;2.03;;;21.50;99.90;;;;;;7390418;19;20461;-73
2023/06/29 00:18:30;;;;;;;2.60;1.90;;;21.60;99.90;;;;;;7391217;19;20127;-72
2023/06/29 00:20:57;;;;;;;4.05;1.77;;;21.70;99.90;;;;;;7390825;19;20126;-72
2023/06/29 00:23:24;;;;;;;3.17;1.85;;;21.70;99.90;;;;;;7388945;19;20143;-73
2023/06/29 00:25:53;;;;;;;3.25;1.90;;;21.70;99.90;;;;;;7384669;19;20139;-73
2023/06/29 00:28:18;;;;;;;3.22;1.75;;;21.70;99.90;;;;;;7392639;19;20143;-72
2023/06/29 00:30:44;;;;;;;2.22;1.90;;;21.70;99.90;;;;;;7385643;19;20137;-73
2023/06/29 00:33:10;;;;;;;4.35;1.90;;;21.60;99.90;;;;;;7390517;19;20139;-72
2023/06/29 00:35:35;;;;;;;5.75;2.00;;;21.50;99.90;;;;;;7389819;19;20133;-71
2023/06/29 00:38:01;;;;;;;2.60;1.63;;;21.60;99.90;;;;;;7392834;19;20473;-72
2023/06/29 00:40:27;;;;;;;5.15;2.20;;;21.50;99.90;;;;;;7389983;19;20160;-72
2023/06/29 00:42:55;;;;;;;2.85;1.58;;;21.50;99.90;;;;;;7390219;19;20147;-72
2023/06/29 00:45:21;;;;;;;2.50;1.70;;;21.40;99.90;;;;;;7390397;19;20592;-72
2023/06/29 00:47:47;;;;;;;3.80;1.98;;;21.30;99.90;;;;;;7388576;19;20147;-72
2023/06/29 00:50:13;;;;;;;4.63;2.20;;;21.20;99.90;;;;;;7389862;19;20147;-72
2023/06/29 00:52:40;;;;;;;4.85;1.60;;;21.30;99.90;;;;;;7388294;19;20510;-73
2023/06/29 00:55:06;;;;;;;2.70;1.70;;;21.40;99.90;;;;;;7391485;19;20147;-71
2023/06/29 00:57:32;;;;;;;3.08;1.70;;;21.30;99.90;;;;;;7387744;19;20144;-72
2023/06/29 01:00:00;;;;;;;2.78;1.83;;;21.40;99.90;;;;;;7389716;19;20479;-73
2023/06/29 01:02:30;;;;;;;2.35;1.83;;;21.30;99.90;;;;;;7390063;19;20142;-72
2023/06/29 01:04:59;;;;;;;4.80;2.10;;;21.40;99.90;;;;;;7389660;19;20215;-72
2023/06/29 01:07:44;;;;;;;2.17;1.70;;;21.30;99.90;;;;;;7389733;19;20768;-73
2023/06/29 01:10:12;;;;;;;4.75;1.80;;;21.00;99.90;;;;;;7390194;19;20127;-72
2023/06/29 01:12:41;;;;;;;2.85;1.80;;;20.90;99.90;;;;;;7388269;19;20135;-73
2023/06/29 01:15:10;;;;;;;3.65;1.70;;;21.00;99.90;;;;;;7388118;19;20143;-73
2023/06/29 01:17:38;;;;;;;2.00;1.80;;;21.10;99.90;;;;;;7388147;19;20230;-73
2023/06/29 01:20:09;;;;;;;1.80;1.70;;;21.20;99.90;;;;;;7390262;19;20138;-73
2023/06/29 01:23:08;;;;;;;5.22;1.90;;;21.20;99.90;;;;;;7388925;19;20135;-72
2023/06/29 01:25:36;;;;;;;1.67;1.50;;;21.20;99.90;;;;;;7388264;19;20165;-73
2023/06/29 01:28:09;;;;;;;4.30;1.80;;;21.10;99.90;;;;;;7389608;19;20153;-73
2023/06/29 01:30:45;;;;;;;2.17;1.88;;;21.20;99.90;;;;;;7389782;19;20210;-72
2023/06/29 01:33:11;;;;;;;2.88;1.58;;;21.00;99.90;;;;;;7390658;19;20169;-72
2023/06/29 01:35:37;;;;;;;2.35;1.83;;;20.90;99.90;;;;;;7388352;19;20173;-73
2023/06/29 01:38:15;;;;;;;3.47;2.10;;;21.00;99.90;;;;;;7390044;19;20518;-72
2023/06/29 01:40:46;;;;;;;4.40;1.70;;;20.90;99.90;;;;;;7390102;19;20139;-72
2023/06/29 01:43:13;;;;;;;3.40;2.08;;;20.90;99.90;;;;;;7389870;19;20154;-72
2023/06/29 01:45:41;;;;;;;2.13;1.70;;;20.90;99.90;;;;;;7388722;19;20189;-73
2023/06/29 01:48:07;;;;;;;2.72;1.85;;;20.90;99.90;;;;;;7390847;19;20194;-73
2023/06/29 01:50:33;;;;;;;1.98;1.73;;;21.00;99.90;;;;;;7389301;19;20147;-72
2023/06/29 01:52:58;;;;;;;3.30;2.20;;;21.00;99.90;;;;;;7387464;19;20150;-73
2023/06/29 01:55:24;;;;;;;2.90;2.15;;;21.00;99.90;;;;;;7389894;19;20142;-73
2023/06/29 01:57:50;;;;;;;3.88;1.90;;;20.90;99.90;;;;;;7386899;19;20173;-72
2023/06/29 02:00:16;;;;;;;4.35;2.30;;;20.70;99.90;;;;;;7387843;19;20607;-73
2023/06/29 02:02:42;;;;;;;2.10;1.90;;;20.80;99.90;;;;;;7387986;19;20146;-72
2023/06/29 02:05:08;;;;;;;3.60;2.40;;;20.90;99.90;;;;;;7391866;19;20138;-73
2023/06/29 02:07:34;;;;;;;3.28;2.33;;;20.90;99.90;;;;;;7386823;19;20138;-72
2023/06/29 02:10:00;;;;;;;4.75;2.25;;;21.00;99.90;;;;;;7385894;19;20513;-72
2023/06/29 02:12:26;;;;;;;5.38;2.13;;;21.00;99.90;;;;;;7388164;19;20177;-72
2023/06/29 02:14:51;;;;;;;2.70;1.90;;;21.00;99.90;;;;;;7390896;19;20173;-73
2023/06/29 02:17:17;;;;;;;3.08;1.85;;;20.90;99.90;;;;;;7390881;19;20146;-72
2023/06/29 02:19:43;;;;;;;2.03;1.83;;;20.90;99.90;;;;;;7387712;19;20135;-72
2023/06/29 02:22:09;;;;;;;2.03;1.70;;;20.90;99.90;;;;;;7387176;19;20135;-72
2023/06/29 02:24:34;;;;;;;2.03;1.85;;;20.80;99.90;;;;;;7388447;19;20161;-73
2023/06/29 02:27:01;;;;;;;3.70;2.25;;;20.80;99.90;;;;;;7388665;19;20131;-72
2023/06/29 02:29:27;;;;;;;6.20;2.17;;;20.80;99.90;;;;;;7388060;19;20218;-72
2023/06/29 02:31:52;;;;;;;3.10;2.13;;;20.80;99.90;;;;;;7388000;19;20554;-73
2023/06/29 02:34:18;;;;;;;4.55;2.13;;;20.80;99.90;;;;;;7388075;19;20126;-73
2023/06/29 02:36:44;;;;;;;5.00;1.88;;;20.70;99.90;;;;;;7387252;19;20197;-73
2023/06/29 02:39:10;;;;;;;3.22;1.80;;;20.70;99.90;;;;;;7387934;19;20178;-73
2023/06/29 02:41:35;;;;;;;2.42;2.10;;;20.60;99.90;;;;;;7388426;19;20154;-73
2023/06/29 02:44:01;;;;;;;3.08;2.22;;;20.60;99.90;;;;;;7381039;19;20118;-72
2023/06/29 02:46:27;;;;;;;3.33;2.30;;;20.50;99.90;;;;;;7387908;19;20169;-72
2023/06/29 02:48:52;;;;;;;2.70;2.40;;;20.60;99.90;;;;;;7385930;19;20157;-73
2023/06/29 02:51:18;;;;;;;2.13;1.75;;;20.60;99.90;;;;;;7387183;19;20138;-72
2023/06/29 02:53:44;;;;;;;2.83;2.22;;;20.60;99.90;;;;;;7387861;19;20157;-72
2023/06/29 02:56:09;;;;;;;3.63;2.00;;;20.50;99.90;;;;;;7385913;19;20163;-72
2023/06/29 02:58:35;;;;;;;3.78;1.90;;;20.60;99.90;;;;;;7386687;19;20206;-72
2023/06/29 03:01:01;;;;;;;1.98;1.77;;;20.50;99.90;;;;;;7389358;19;20165;-73
2023/06/29 03:03:27;;;;;;;2.47;1.90;;;20.40;99.90;;;;;;7388567;19;20481;-72
2023/06/29 03:05:52;;;;;;;3.50;2.17;;;20.50;99.90;;;;;;7387182;19;20146;-73
2023/06/29 03:08:18;;;;;;;2.25;1.80;;;20.50;99.90;;;;;;7385318;19;20164;-73
2023/06/29 03:10:44;;;;;;;3.55;1.98;;;20.40;99.90;;;;;;7387300;19;20217;-73
2023/06/29 03:13:09;;;;;;;2.78;2.00;;;20.40;99.90;;;;;;7390360;19;20138;-72
2023/06/29 03:15:35;;;;;;;3.28;1.70;;;20.50;99.90;;;;;;7394355;19;20543;-72
2023/06/29 03:18:01;;;;;;;2.63;1.88;;;20.50;99.90;;;;;;7393460;19;20148;-72
2023/06/29 03:20:27;;;;;;;2.80;2.13;;;20.40;99.90;;;;;;7394108;19;20194;-72
2023/06/29 03:22:53;;;;;;;2.40;2.00;;;20.40;99.90;;;;;;7395099;19;20142;-73
2023/06/29 03:25:18;;;;;;;2.13;1.90;;;20.30;99.90;;;;;;7392324;19;20147;-73
2023/06/29 03:27:44;;;;;;;2.70;1.58;;;20.30;99.90;;;;;;7394006;19;20139;-73
2023/06/29 03:30:10;;;;;;;2.92;2.03;;;20.40;99.90;;;;;;7385216;19;20141;-72
2023/06/29 03:32:36;;;;;;;3.53;2.20;;;20.10;99.90;;;;;;7393737;19;20139;-71
2023/06/29 03:35:02;;;;;;;4.30;2.53;;;20.20;99.90;;;;;;7393519;19;20149;-72
2023/06/29 03:37:27;;;;;;;4.18;2.30;;;20.30;99.90;;;;;;7394937;19;20134;-72
2023/06/29 03:39:53;;;;;;;3.78;2.42;;;20.20;99.90;;;;;;7394019;19;20214;-73
2023/06/29 03:42:19;;;;;;;3.58;2.45;;;20.30;99.90;;;;;;7395837;19;20169;-71
2023/06/29 03:44:44;;;;;;;5.60;3.08;;;20.30;99.90;;;;;;7393507;19;20142;-71
2023/06/29 03:47:10;;;;;;;5.05;2.80;;;20.30;99.90;;;;;;7392338;19;20158;-72
2023/06/29 03:49:36;;;;;;;2.97;2.35;;;20.30;99.90;;;;;;7392695;19;20154;-73
2023/06/29 03:52:01;;;;;;;5.25;2.53;;;20.40;99.90;;;;;;7393333;19;20542;-73
2023/06/29 03:54:27;;;;;;;5.10;2.47;;;20.40;99.90;;;;;;7398849;19;20168;-72
2023/06/29 03:56:54;;;;;;;7.55;3.20;;;20.40;99.90;;;;;;7394730;19;20165;-72
2023/06/29 03:59:20;;;;;;;4.03;2.40;;;20.50;99.90;;;;;;7397121;19;20163;-71
2023/06/29 04:01:46;;;;;;;4.78;2.60;;;20.50;99.90;;;;;;7396879;19;20168;-72
2023/06/29 04:04:12;;;;;;;4.45;2.95;;;20.50;99.90;;;;;;7400961;19;20142;-72
2023/06/29 04:06:37;;;;;;;5.28;2.80;;;20.50;99.90;;;;;;7395972;19;20153;-71
2023/06/29 04:09:03;;;;;;;4.95;3.00;;;20.40;99.90;;;;;;7396232;19;20566;-72
2023/06/29 04:11:29;;;;;;;9.80;3.67;;;20.40;99.90;;;;;;7397506;19;20206;-70
2023/06/29 04:13:55;;;;;;;9.02;3.05;;;20.30;99.90;;;;;;7398539;19;20142;-71
2023/06/29 04:16:20;;;;;;;8.07;3.42;;;20.20;99.90;;;;;;7395139;19;20510;-72
2023/06/29 04:18:46;;;;;;;7.03;3.25;;;20.20;99.90;;;;;;7389123;19;20759;-72
2023/06/29 04:21:12;;;;;;;5.15;2.90;;;20.30;99.90;;;;;;7392594;19;20156;-72
2023/06/29 04:23:38;;;;;;;7.75;3.42;;;20.30;99.90;;;;;;7390287;19;20141;-72
2023/06/29 04:26:04;;;;;;;4.93;2.95;;;20.20;99.90;;;;;;7389233;19;20161;-72
2023/06/29 04:28:33;;;;;;;6.90;3.03;;;20.20;99.90;;;;;;7390475;19;20138;-71
2023/06/29 04:30:59;;;;;;;6.97;3.20;;;20.30;99.90;;;;;;7391511;19;20139;-71
2023/06/29 04:33:25;;;;;;;7.88;3.00;;;20.30;99.90;;;;;;7391254;19;20147;-72
2023/06/29 04:35:50;;;;;;;4.82;2.75;;;20.40;99.90;;;;;;7387381;19;20153;-72
2023/06/29 04:38:17;;;;;;;5.07;2.70;;;20.50;99.90;;;;;;7389829;19;20147;-71
2023/06/29 04:40:43;;;;;;;4.38;2.20;;;20.50;99.90;;;;;;7389796;19;20155;-72
2023/06/29 04:43:09;;;;;;;4.35;2.58;;;20.60;99.90;;;;;;7392916;19;20141;-72
2023/06/29 04:45:35;;;;;;;3.65;2.65;;;20.50;99.90;;;;;;7388740;19;20674;-71
2023/06/29 04:48:01;;;;;;;3.95;2.65;;;20.50;99.90;;;;;;7392222;19;20146;-72
2023/06/29 04:50:35;;;;;;;3.80;2.13;;;20.40;99.90;;;;;;7392355;19;20769;-72
2023/06/29 04:53:11;;;;;;;4.32;2.38;;;20.40;99.90;;;;;;7391382;19;20146;-71
2023/06/29 04:55:38;;;;;;;3.22;2.33;;;19.90;99.90;;;;;;7389929;19;20138;-71
2023/06/29 04:58:04;;;;;;;2.97;2.47;;;19.80;99.90;;;;;;7390250;19;20229;-72
2023/06/29 05:00:31;;;;;;;2.92;2.33;;;20.10;99.90;;;;;;7387869;19;20166;-72
2023/06/29 05:02:57;;;;;;;4.88;2.58;;;20.10;99.90;;;;;;7389055;19;20161;-72
2023/06/29 05:05:23;;;;;;;3.67;2.45;;;20.30;99.90;;;;;;7387021;19;20205;-72
2023/06/29 05:07:50;;;;;;;4.35;2.53;;;20.40;99.90;;;;;;7388040;19;20606;-70
2023/06/29 05:10:16;;;;;;;4.93;3.08;;;20.50;99.90;;;;;;7385360;19;20234;-72
2023/06/29 05:12:41;;;;;;;6.47;2.75;;;20.50;99.90;;;;;;7389324;19;20131;-71
2023/06/29 05:15:08;;;;;;;5.38;2.80;;;20.60;99.90;;;;;;7388412;19;20141;-71
2023/06/29 05:17:33;;;;;;;4.53;2.85;;;20.50;99.90;;;;;;7388374;19;20477;-71
2023/06/29 05:19:59;;;;;;;4.03;2.75;;;20.50;99.90;;;;;;7388561;19;20127;-71
2023/06/29 05:22:25;;;;;;;5.18;2.70;;;20.50;99.90;;;;;;7388803;19;20134;-71
2023/06/29 05:24:51;;;;;;;4.88;2.20;;;20.60;99.90;;;;;;7387074;19;20126;-71
2023/06/29 05:27:16;;;;;;;4.70;2.55;;;20.60;99.90;;;;;;7387025;19;20449;-71
2023/06/29 05:29:42;;;;;;;4.00;2.63;;;20.50;99.90;;;;;;7384978;19;20135;-71
2023/06/29 05:32:08;;;;;;;5.72;3.03;;;20.70;99.90;;;;;;7384628;19;20126;-73
2023/06/29 05:34:35;;;;;;;5.53;2.83;;;20.80;99.90;;;;;;7389425;19;20131;-71
2023/06/29 05:37:01;;;;;;;5.38;2.70;;;20.80;99.90;;;;;;7384534;19;20151;-72
2023/06/29 05:39:27;;;;;;;4.32;2.60;;;20.90;99.90;;;;;;7386301;19;20134;-71
2023/06/29 05:41:53;;;;;;;4.43;2.60;;;20.80;99.90;;;;;;7384886;19;20137;-72
2023/06/29 05:44:19;;;;;;;3.88;2.67;;;20.60;99.90;;;;;;7387842;19;20194;-72
2023/06/29 05:46:44;;;;;;;4.75;2.67;;;20.60;99.90;;;;;;7382593;19;20142;-71
2023/06/29 05:49:10;;;;;;;5.18;2.65;;;20.60;99.90;;;;;;7384745;19;20131;-72
2023/06/29 05:51:37;;;;;;;5.25;2.53;;;20.60;99.90;;;;;;7387718;19;20143;-72
2023/06/29 05:54:04;;;;;;;4.22;2.70;;;20.60;99.90;;;;;;7385853;19;20137;-71
2023/06/29 05:56:31;;;;;;;4.43;2.97;;;20.70;99.90;;;;;;7388322;19;20144;-72
2023/06/29 05:58:56;;;;;;;6.15;2.42;;;20.80;99.90;;;;;;7385309;19;20296;-75
2023/06/29 06:01:22;;;;;;;6.63;3.10;;;20.80;99.90;;;;;;7386709;19;20131;-76
2023/06/29 06:03:48;;;;;;;4.28;2.70;;;20.90;99.90;;;;;;7388318;19;20598;-75
2023/06/29 06:06:15;;;;;;;5.25;2.83;;;20.80;99.90;;;;;;7388568;19;20118;-74
2023/06/29 06:08:41;;;;;;;4.63;3.22;;;20.90;99.90;;;;;;7386360;19;20243;-74
2023/06/29 06:11:06;;;;;;;4.10;3.10;;;21.00;99.90;;;;;;7387117;19;20737;-74
2023/06/29 06:13:32;;;;;;;4.22;2.90;;;21.20;99.90;;;;;;7385894;19;20141;-73
2023/06/29 06:15:58;;;;;;;3.95;2.78;;;21.70;99.90;;;;;;7382565;19;20165;-74
2023/06/29 06:18:24;;;;;;;5.65;2.58;;;23.40;99.90;;;;;;7384869;19;20172;-74
2023/06/29 06:20:50;;;;;;;4.50;3.03;;;24.90;99.90;;;;;;7388353;19;20138;-74
2023/06/29 06:23:15;;;;;;;3.47;2.42;;;25.90;99.90;;;;;;7384936;19;20458;-75
2023/06/29 06:25:41;;;;;;;3.00;2.42;;;26.40;99.30;;;;;;7383640;19;20142;-75
2023/06/29 06:28:07;;;;;;;2.70;2.40;;;27.70;97.00;;;;;;7385937;19;20135;-75
2023/06/29 06:30:33;;;;;;;3.95;2.80;;;28.70;94.90;;;;;;7387072;19;20153;-75
2023/06/29 06:33:01;;;;;;;5.63;3.08;;;29.60;93.00;;;;;;7389325;19;20461;-75
2023/06/29 06:35:28;;;;;;;6.07;3.28;;;29.90;91.90;;;;;;7384722;19;20218;-76
2023/06/29 06:37:54;;;;;;;5.13;2.63;;;30.10;91.30;;;;;;7386626;19;20142;-74
2023/06/29 06:40:20;;;;;;;4.43;2.63;;;30.10;90.70;;;;;;7385423;19;20217;-74
2023/06/29 06:42:46;;;;;;;5.03;2.78;;;30.00;90.50;;;;;;7385083;19;20154;-75
2023/06/29 06:45:13;;;;;;;4.30;2.85;;;29.80;90.50;;;;;;7383962;19;20134;-75
2023/06/29 06:47:40;;;;;;;5.30;2.47;;;29.50;90.90;;;;;;7381763;19;20142;-74
2023/06/29 06:50:06;;;;;;;3.63;2.75;;;29.80;90.80;;;;;;7383694;19;20138;-75
2023/06/29 06:52:32;;;;;;;4.88;2.88;;;29.80;90.20;;;;;;7385350;19;20130;-75
2023/06/29 06:54:57;;;;;;;4.32;2.88;;;29.90;90.00;;;;;;7384735;19;20157;-76
2023/06/29 06:57:23;;;;;;;5.13;2.70;;;29.90;89.80;;;;;;7383692;19;20142;-76
2023/06/29 06:59:49;;;;;;;3.97;2.83;;;29.70;90.00;;;;;;7386017;19;20135;-76
2023/06/29 07:02:15;;;;;;;4.32;2.83;;;29.30;90.40;;;;;;7384817;19;20154;-76
2023/06/29 07:04:41;;;;;;;5.40;2.55;;;29.40;90.30;;;;;;7384255;19;20531;-74
2023/06/29 07:07:07;;;;;;;5.30;3.85;;;29.50;89.90;;;;;;7386606;19;20138;-75
2023/06/29 07:09:33;;;;;;;4.40;2.65;;;29.20;90.10;;;;;;7381916;19;20194;-77
2023/06/29 07:11:59;;;;;;;5.15;2.28;;;29.10;90.20;;;;;;7385859;19;20167;-79
2023/06/29 07:14:28;;;;;;;5.13;2.65;;;28.80;90.40;;;;;;7384226;19;20134;-78
2023/06/29 07:16:55;;;;;;;4.93;2.75;;;28.90;90.50;;;;;;7386029;19;20163;-78
2023/06/29 07:19:21;;;;;;;4.50;3.08;;;28.70;90.50;;;;;;7388070;19;20230;-78
2023/06/29 07:21:47;;;;;;;4.72;2.80;;;28.70;90.70;;;;;;7384761;19;20143;-79
2023/06/29 07:24:12;;;;;;;4.72;2.78;;;28.90;90.20;;;;;;7384222;19;20138;-78
2023/06/29 07:26:38;;;;;;;5.60;2.53;;;28.80;90.20;;;;;;7386171;19;20159;-77
2023/06/29 07:29:07;;;;;;;4.63;2.28;;;28.20;90.60;;;;;;7385657;19;20467;-78
2023/06/29 07:31:34;;;;;;;4.60;2.28;;;27.40;91.30;;;;;;7385521;19;20146;-78
2023/06/29 07:33:59;;;;;;;4.38;2.13;;;26.90;92.20;;;;;;7385680;19;20515;-77
2023/06/29 07:36:26;;;;;;;3.15;2.20;;;27.10;92.20;;;;;;7382231;19;20155;-78
2023/06/29 07:38:53;;;;;;;3.30;2.20;;;27.20;92.10;;;;;;7387228;19;20656;-78
2023/06/29 07:41:19;;;;;;;5.55;3.10;;;26.90;92.50;;;;;;7385008;19;20149;-78
2023/06/29 07:43:53;;;;;;;4.90;2.80;;;26.80;92.50;;;;;;7384092;19;20135;-77
2023/06/29 07:46:22;;;;;;;5.38;2.00;;;26.60;92.60;;;;;;7381770;19;20245;-78
2023/06/29 07:48:48;;;;;;;3.75;2.28;;;26.50;92.70;;;;;;7383996;19;20139;-77
2023/06/29 07:51:14;;;;;;;6.45;2.58;;;26.50;92.90;;;;;;7383363;19;20198;-78
2023/06/29 07:53:41;;;;;;;6.47;2.60;;;26.40;92.90;;;;;;7385336;19;20139;-77
2023/06/29 07:56:07;;;;;;;3.72;2.47;;;26.40;93.50;;;;;;7385097;19;20156;-77
2023/06/29 07:58:33;;;;;;;4.63;2.50;;;26.60;93.10;;;;;;7385973;19;20854;-77
2023/06/29 08:00:58;;;;;;;5.10;2.10;;;26.70;92.90;;;;;;7388931;19;20171;-77
2023/06/29 08:03:24;;;;;;;5.10;2.70;;;27.30;92.30;;;;;;7390995;19;20214;-76
2023/06/29 08:05:52;;;;;;;6.60;2.20;;;27.70;91.50;;;;;;7387650;19;20663;-76
2023/06/29 08:08:18;;;;;;;3.38;1.92;;;27.80;91.30;;;;;;7387962;19;20147;-77
2023/06/29 08:10:44;;;;;;;2.78;2.10;;;27.70;91.40;;;;;;7388933;19;20161;-77
2023/06/29 08:13:10;;;;;;;3.03;1.85;;;27.70;91.20;;;;;;7391328;19;20127;-78
2023/06/29 08:15:36;;;;;;;5.25;2.25;;;27.20;91.40;;;;;;7387585;19;20259;-77
2023/06/29 08:18:02;;;;;;;3.65;2.30;;;27.40;91.30;;;;;;7388986;19;20139;-76
2023/06/29 08:20:27;;;;;;;4.10;2.17;;;27.20;91.40;;;;;;7389485;19;20150;-76
2023/06/29 08:22:54;;;;;;;3.28;1.95;;;27.10;91.60;;;;;;7389172;19;20184;-78
2023/06/29 08:25:22;;;;;;;3.58;2.30;;;27.30;91.50;;;;;;7387609;19;20175;-79
2023/06/29 08:27:49;;;;;;;3.97;2.15;;;27.30;91.40;;;;;;7389316;19;20646;-77
2023/06/29 08:30:15;;;;;;;4.97;2.35;;;27.30;91.80;;;;;;7388976;19;20219;-78
2023/06/29 08:32:48;;;;;;;3.90;2.40;;;27.50;91.70;;;;;;7388478;19;20658;-79
2023/06/29 08:35:14;;;;;;;7.30;3.08;;;27.60;91.60;;;;;;7386541;19;20154;-79
2023/06/29 08:37:41;;;;;;;5.40;2.08;;;27.70;90.90;;;;;;7391686;19;20157;-78
2023/06/29 08:40:08;;;;;;;3.30;1.60;;;27.40;90.50;;;;;;7388887;19;20614;-78
2023/06/29 08:42:35;;;;;;;2.80;1.70;;;27.20;89.50;;;;;;7388568;19;20160;-79
2023/06/29 08:45:01;;;;;;;3.20;1.50;;;27.10;90.40;;;;;;7388474;19;20157;-79
2023/06/29 08:47:30;;;;;;;2.22;1.55;;;27.20;90.60;;;;;;7386289;19;20170;-77
2023/06/29 08:49:57;;;;;;;3.45;1.90;;;27.40;88.70;;;;;;7387547;19;20170;-78
2023/06/29 08:52:26;;;;;;;3.75;1.50;;;27.40;88.30;;;;;;7393622;19;20142;-79
2023/06/29 08:54:52;;;;;;;5.63;3.00;;;27.60;87.30;;;;;;7385965;19;20771;-79
2023/06/29 08:57:19;;;;;;;5.13;1.80;;;27.80;86.30;;;;;;7388473;19;20153;-77
2023/06/29 08:59:48;;;;;;;2.78;1.60;;;28.30;86.30;;;;;;7388721;19;20179;-81
2023/06/29 09:02:15;;;;;;;2.67;1.83;;;28.60;83.80;;;;;;7388232;19;20141;-78
2023/06/29 09:04:46;;;;;;;2.53;1.80;;;28.50;83.40;;;;;;7388150;19;20153;-78
2023/06/29 09:07:15;;;;;;;1.88;1.17;;;28.80;84.10;;;;;;7389213;19;20618;-78
2023/06/29 09:09:41;;;;;;;4.30;2.08;;;29.00;82.40;;;;;;7385499;19;20165;-78
2023/06/29 09:12:09;;;;;;;5.13;1.70;;;29.10;83.60;;;;;;7387977;19;20139;-78
2023/06/29 09:14:43;;;;;;;2.15;1.30;;;29.40;81.30;;;;;;7388233;19;20150;-78
2023/06/29 09:17:17;;;;;;;2.67;2.17;;;29.50;80.40;;;;;;7386836;19;20126;-79
2023/06/29 09:20:13;;;;;;;3.03;1.85;;;29.20;79.80;;;;;;7387102;19;20131;-78
2023/06/29 09:22:40;;;;;;;3.08;1.42;;;29.20;81.20;;;;;;7387531;19;20142;-78
2023/06/29 09:25:07;;;;;;;3.08;1.80;;;29.10;80.70;;;;;;7387421;19;20137;-78
2023/06/29 09:27:36;;;;;;;1.90;1.40;;;29.10;81.10;;;;;;7388446;19;20127;-78
2023/06/29 09:30:04;;;;;;;2.80;2.40;;;29.20;79.90;;;;;;7387359;19;20153;-79
2023/06/29 09:32:30;;;;;;;6.88;3.25;;;29.20;80.40;;;;;;7387431;19;20686;-78
2023/06/29 09:35:05;;;;;;;4.40;1.77;;;29.00;80.50;;;;;;7388911;19;20167;-79
2023/06/29 09:37:31;;;;;;;3.42;2.00;;;28.90;81.40;;;;;;7387324;19;20163;-79
2023/06/29 09:39:59;;;;;;;7.13;2.20;;;28.90;81.30;;;;;;7387117;19;21700;-77
2023/06/29 09:42:28;;;;;;;2.55;1.90;;;28.80;80.90;;;;;;7390624;19;20149;-79
2023/06/29 09:44:54;;;;;;;3.40;2.17;;;28.80;81.40;;;;;;7388131;19;20135;-81
2023/06/29 09:47:21;;;;;;;2.53;1.80;;;28.80;81.40;;;;;;7384506;19;20158;-79
2023/06/29 09:49:48;;;;;;;1.77;1.23;;;28.80;80.00;;;;;;7384876;19;20149;-77
2023/06/29 09:52:17;;;;;;;2.40;1.40;;;28.60;80.00;;;;;;7386371;19;20268;-79
2023/06/29 09:54:44;;;;;;;2.13;1.30;;;28.40;81.20;;;;;;7386807;19;20153;-79
2023/06/29 09:57:11;;;;;;;1.48;1.35;;;28.40;80.40;;;;;;7389902;19;20157;-80
2023/06/29 09:59:41;;;;;;;3.33;2.10;;;28.50;81.60;;;;;;7386061;19;20135;-79
2023/06/29 10:02:11;;;;;;;4.07;1.80;;;28.50;81.20;;;;;;7387253;19;20540;-79
2023/06/29 10:04:39;;;;;;;2.72;1.70;;;28.60;80.10;;;;;;7389297;19;20134;-79
2023/06/29 10:07:16;;;;;;;4.82;4.00;;;28.70;80.80;;;;;;7385857;19;20153;-78
2023/06/29 10:09:45;;;;;;;4.90;2.95;;;28.90;80.70;;;;;;7385711;19;20144;-79
2023/06/29 10:12:12;;;;;;;2.95;1.67;;;29.00;80.10;;;;;;7390432;19;20481;-80
2023/06/29 10:14:40;;;;;;;1.90;1.70;;;29.10;78.50;;;;;;7388609;19;20142;-79
2023/06/29 10:17:09;;;;;;;8.48;5.95;;;28.80;79.00;;;;;;7386293;19;20150;-79
2023/06/29 10:19:39;;;;;;;2.28;2.08;;;28.80;80.40;;;;;;7387910;19;20188;-80
2023/06/29 10:22:10;;;;;;;2.05;1.30;;;28.90;78.50;;;;;;7386785;19;20191;-81
2023/06/29 10:25:01;;;;;;;5.10;1.60;;;28.70;79.10;;;;;;7388043;19;20186;-80
2023/06/29 10:27:29;;;;;;;2.47;1.80;;;28.60;80.00;;;;;;7385680;19;20639;-78
2023/06/29 10:29:55;;;;;;;7.28;1.60;;;28.80;79.10;;;;;;7382240;19;20150;-79
2023/06/29 10:32:31;;;;;;;2.83;1.65;;;28.80;78.90;;;;;;7385526;19;20169;-79
2023/06/29 10:35:13;;;;;;;4.22;1.88;;;28.60;79.20;;;;;;7388557;19;20227;-78
2023/06/29 10:37:42;;;;;;;2.42;1.67;;;28.70;79.80;;;;;;7388557;19;20175;-79
2023/06/29 10:40:10;;;;;;;3.05;1.85;;;28.90;79.30;;;;;;7387976;19;20127;-81
2023/06/29 10:42:42;;;;;;;4.47;2.67;;;29.00;78.00;;;;;;7388761;19;20582;-78
2023/06/29 10:45:20;;;;;;;3.22;1.42;;;28.70;79.40;;;;;;7386591;19;20138;-80
2023/06/29 10:48:08;;;;;;;2.50;1.50;;;28.70;79.50;;;;;;7390409;19;20134;-81
2023/06/29 10:50:50;;;;;;;3.20;2.20;;;28.70;79.60;;;;;;7386143;19;20148;-80
2023/06/29 10:53:17;;;;;;;4.18;2.67;;;28.60;80.30;;;;;;7388610;19;20155;-79
2023/06/29 10:55:51;;;;;;;3.40;2.50;;;28.70;80.00;;;;;;7386281;19;20127;-80
2023/06/29 10:58:26;;;;;;;4.45;2.17;;;28.70;78.90;;;;;;7388079;19;20125;-80
2023/06/29 11:00:53;;;;;;;2.38;1.70;;;28.40;80.20;;;;;;7386331;19;20152;-79
2023/06/29 11:03:20;;;;;;;5.60;4.43;;;28.40;79.90;;;;;;7389813;19;20157;-81
2023/06/29 11:05:55;;;;;;;15.43;10.88;;;28.30;81.00;;;;;;7390044;19;20145;-79
2023/06/29 11:08:22;;;;;;;2.47;1.70;;;28.60;81.20;;;;;;7391292;19;20127;-81
2023/06/29 11:10:48;;;;;;;5.03;2.28;;;28.70;79.30;;;;;;7391292;19;20496;-80
2023/06/29 11:13:13;;;;;;;8.20;5.45;;;28.50;79.80;;;;;;7389296;19;20138;-78
2023/06/29 11:15:44;;;;;;;4.80;3.25;;;28.10;80.60;;;;;;7387870;19;20141;-77
2023/06/29 11:18:10;;;;;;;4.72;3.30;;;28.00;80.80;;;;;;7380423;19;20142;-77
2023/06/29 11:20:39;;;;;;;7.47;5.88;;;28.10;80.60;;;;;;7387747;19;20658;-78
2023/06/29 11:23:07;;;;;;;3.70;2.85;;;28.30;80.90;;;;;;7388559;19;20139;-77
2023/06/29 11:25:33;;;;;;;4.25;2.25;;;28.50;80.20;;;;;;7386153;19;20180;-78
2023/06/29 11:27:59;;;;;;;4.03;2.47;;;28.60;79.70;;;;;;7386284;19;20157;-80
2023/06/29 11:30:25;;;;;;;4.68;2.65;;;28.70;79.60;;;;;;7381789;19;20513;-77
2023/06/29 11:32:52;;;;;;;3.58;2.53;;;28.70;79.80;;;;;;7384217;19;20127;-76
2023/06/29 11:35:22;;;;;;;3.03;2.58;;;28.70;79.20;;;;;;7395352;19;20518;-77
2023/06/29 11:37:50;;;;;;;3.30;2.28;;;28.50;79.20;;;;;;7393335;19;20160;-77
2023/06/29 11:40:21;;;;;;;5.55;3.20;;;28.40;80.60;;;;;;7390468;19;20146;-80
2023/06/29 11:42:49;;;;;;;4.45;3.05;;;28.50;81.30;;;;;;7392492;19;20142;-79
2023/06/29 11:45:19;;;;;;;5.53;4.10;;;28.70;80.90;;;;;;7388977;19;20134;-79
2023/06/29 11:47:49;;;;;;;4.95;3.45;;;28.90;79.80;;;;;;7393394;19;20126;-77
2023/06/29 11:50:15;;;;;;;11.23;8.07;;;29.10;79.30;;;;;;7386073;19;20497;-77
2023/06/29 11:52:44;;;;;;;5.72;2.60;;;29.10;79.90;;;;;;7387612;19;20811;-78
2023/06/29 11:55:13;;;;;;;9.85;6.97;;;29.10;78.80;;;;;;7388949;19;20147;-78
2023/06/29 11:57:41;;;;;;;3.47;2.60;;;29.10;79.20;;;;;;7387651;19;20145;-77
2023/06/29 12:00:16;;;;;;;3.20;2.33;;;29.10;78.80;;;;;;7388127;19;20138;-77
2023/06/29 12:02:43;;;;;;;8.90;6.47;;;28.80;79.60;;;;;;7389761;19;20134;-78
2023/06/29 12:05:09;;;;;;;9.90;8.15;;;28.80;80.10;;;;;;7392196;19;20163;-76
2023/06/29 12:07:46;;;;;;;4.15;2.50;;;28.80;80.20;;;;;;7390494;19;20617;-77
2023/06/29 12:10:15;;;;;;;2.70;2.35;;;28.90;78.80;;;;;;7389916;19;20246;-78
2023/06/29 12:12:43;;;;;;;5.43;3.83;;;28.80;79.80;;;;;;7390385;19;20130;-77
2023/06/29 12:15:20;;;;;;;4.78;4.10;;;28.90;79.00;;;;;;7392418;19;20146;-78
2023/06/29 12:17:48;;;;;;;5.70;3.80;;;29.00;79.40;;;;;;7390925;19;20134;-77
2023/06/29 12:20:14;;;;;;;5.18;3.70;;;28.90;79.00;;;;;;7389461;19;20218;-77
2023/06/29 12:22:41;;;;;;;3.53;2.42;;;29.10;79.10;;;;;;7390579;19;20134;-77
2023/06/29 12:25:15;;;;;;;4.43;2.65;;;29.40;77.90;;;;;;7389948;19;20169;-78
2023/06/29 12:27:44;;;;;;;4.38;3.03;;;29.30;77.50;;;;;;7391429;19;20130;-76
2023/06/29 12:30:11;;;;;;;4.30;2.80;;;29.10;77.90;;;;;;7389986;19;20131;-79
2023/06/29 12:32:39;;;;;;;4.90;3.30;;;29.00;78.30;;;;;;7389557;19;20131;-81
2023/06/29 12:35:05;;;;;;;6.25;2.70;;;28.90;78.80;;;;;;7392862;19;20138;-82
2023/06/29 12:37:36;;;;;;;7.57;3.30;;;28.80;78.90;;;;;;7389753;19;20183;-81
2023/06/29 12:40:04;;;;;;;3.92;2.67;;;28.90;78.60;;;;;;7390904;19;20173;-81
2023/06/29 12:42:31;;;;;;;4.00;2.63;;;28.80;78.70;;;;;;7390782;19;20903;-80
2023/06/29 12:44:57;;;;;;;3.55;2.78;;;28.70;79.30;;;;;;7388098;19;20155;-79
2023/06/29 12:47:23;;;;;;;6.65;3.63;;;28.80;79.00;;;;;;7386088;19;20650;-83